Anchor, Illinois
Current Conditions -  °F | °C
As of 3:56 AM on Thursday 23 Oct 2014 (Local Time) from KBMI Reporting Station
Clear Clear  
Wind Chill: 32°   Ceiling: Unl
Heat Index: 38°   Visibility: 10mi
Dew Point: 35°   Wind: 8mph
Humidity: 89%   Direction: 160°SSE
Pressure: 30.22"   Gusts: NA
Location:  40.57°N, 88.54°W
Report Text: KBMI 230856Z AUTO 16007KT 10SM CLR 03/02 A3022 RMK AO2 56008 60000 T00330016 SNB46E54 P0000 SLP238
Loading
Personal Weather Stations






























Interactive Weather Map New forecast layout! Learn more

10-Day Weather Forecast

Advertisements
Track Severe Weather on mobile